sensor_id;sensor_type;location;lat;lon;timestamp;pressure;altitude;pressure_sealevel;temperature;humidity
20009;BME280;10165;42.662;23.260;2023-02-19T06:02:59;94508.00;;;10.96;45.89
20009;BME280;10165;42.662;23.260;2023-02-19T06:05:26;94506.53;;;10.98;45.43
20009;BME280;10165;42.662;23.260;2023-02-19T06:07:53;94511.66;;;11.43;44.32
20009;BME280;10165;42.662;23.260;2023-02-19T06:10:19;94511.28;;;11.17;45.20
20009;BME280;10165;42.662;23.260;2023-02-19T06:12:46;94515.75;;;11.13;44.87
20009;BME280;10165;42.662;23.260;2023-02-19T06:15:13;94522.19;;;11.12;44.91
20009;BME280;10165;42.662;23.260;2023-02-19T06:17:39;94526.16;;;11.42;43.99
20009;BME280;10165;42.662;23.260;2023-02-19T06:20:06;94525.91;;;11.08;44.75
20009;BME280;10165;42.662;23.260;2023-02-19T06:22:33;94522.53;;;11.23;44.58
20009;BME280;10165;42.662;23.260;2023-02-19T06:24:59;94525.97;;;11.23;44.37
20009;BME280;10165;42.662;23.260;2023-02-19T06:27:27;94528.88;;;11.58;43.55
20009;BME280;10165;42.662;23.260;2023-02-19T06:29:53;94529.50;;;11.39;44.04
20009;BME280;10165;42.662;23.260;2023-02-19T06:32:20;94521.88;;;11.14;44.18
20009;BME280;10165;42.662;23.260;2023-02-19T06:34:47;94523.44;;;11.15;44.50
20009;BME280;10165;42.662;23.260;2023-02-19T06:37:14;94520.53;;;11.20;44.36
20009;BME280;10165;42.662;23.260;2023-02-19T06:39:40;94520.50;;;11.32;44.07
20009;BME280;10165;42.662;23.260;2023-02-19T06:42:07;94518.22;;;10.82;45.18
20009;BME280;10165;42.662;23.260;2023-02-19T06:44:34;94519.22;;;10.77;45.18
20009;BME280;10165;42.662;23.260;2023-02-19T06:47:00;94519.44;;;11.09;44.57
20009;BME280;10165;42.662;23.260;2023-02-19T06:49:27;94525.94;;;10.83;45.65
20009;BME280;10165;42.662;23.260;2023-02-19T06:51:54;94523.03;;;10.88;45.13
20009;BME280;10165;42.662;23.260;2023-02-19T06:54:21;94520.56;;;10.83;45.47
20009;BME280;10165;42.662;23.260;2023-02-19T06:56:48;94520.88;;;11.06;44.93
20009;BME280;10165;42.662;23.260;2023-02-19T06:59:15;94525.69;;;11.52;43.95
20009;BME280;10165;42.662;23.260;2023-02-19T07:01:45;94531.22;;;11.72;43.10
20009;BME280;10165;42.662;23.260;2023-02-19T07:04:11;94529.53;;;11.79;43.04
20009;BME280;10165;42.662;23.260;2023-02-19T07:06:38;94539.91;;;11.96;42.63
20009;BME280;10165;42.662;23.260;2023-02-19T07:09:06;94531.91;;;12.12;42.42
20009;BME280;10165;42.662;23.260;2023-02-19T07:11:35;94525.88;;;11.72;43.07
20009;BME280;10165;42.662;23.260;2023-02-19T07:14:05;94531.94;;;11.84;43.13
20009;BME280;10165;42.662;23.260;2023-02-19T07:16:35;94525.78;;;12.12;42.42
20009;BME280;10165;42.662;23.260;2023-02-19T07:19:02;94533.72;;;12.08;42.43
20009;BME280;10165;42.662;23.260;2023-02-19T07:21:29;94522.09;;;11.88;43.05
20009;BME280;10165;42.662;23.260;2023-02-19T07:23:56;94514.66;;;11.82;43.15
20009;BME280;10165;42.662;23.260;2023-02-19T07:26:23;94522.09;;;11.88;42.98
20009;BME280;10165;42.662;23.260;2023-02-19T07:28:50;94504.06;;;12.44;42.21
20009;BME280;10165;42.662;23.260;2023-02-19T07:31:19;94509.91;;;12.50;41.46
20009;BME280;10165;42.662;23.260;2023-02-19T07:33:46;94515.72;;;12.83;41.02
20009;BME280;10165;42.662;23.260;2023-02-19T07:36:15;94514.84;;;13.11;40.50
20009;BME280;10165;42.662;23.260;2023-02-19T07:38:43;94504.84;;;13.11;40.18
20009;BME280;10165;42.662;23.260;2023-02-19T07:41:10;94503.44;;;12.67;41.01
20009;BME280;10165;42.662;23.260;2023-02-19T07:43:38;94506.59;;;12.88;40.72
20009;BME280;10165;42.662;23.260;2023-02-19T07:46:06;94507.84;;;12.59;41.07
20009;BME280;10165;42.662;23.260;2023-02-19T07:48:34;94506.72;;;12.91;40.95
20009;BME280;10165;42.662;23.260;2023-02-19T07:51:02;94499.19;;;12.81;40.81
20009;BME280;10165;42.662;23.260;2023-02-19T07:53:30;94503.84;;;12.84;40.79
20009;BME280;10165;42.662;23.260;2023-02-19T07:56:06;94502.97;;;13.12;40.23
20009;BME280;10165;42.662;23.260;2023-02-19T07:58:33;94494.38;;;12.40;41.90
20009;BME280;10165;42.662;23.260;2023-02-19T08:01:17;94487.59;;;12.77;41.05
20009;BME280;10165;42.662;23.260;2023-02-19T08:03:44;94493.66;;;12.74;40.89
20009;BME280;10165;42.662;23.260;2023-02-19T08:06:13;94487.88;;;13.23;40.20
20009;BME280;10165;42.662;23.260;2023-02-19T08:08:40;94485.13;;;13.19;40.27
20009;BME280;10165;42.662;23.260;2023-02-19T08:11:06;94488.78;;;13.30;40.01
20009;BME280;10165;42.662;23.260;2023-02-19T08:13:52;94485.13;;;13.38;40.14
20009;BME280;10165;42.662;23.260;2023-02-19T08:16:20;94485.00;;;13.70;39.27
20009;BME280;10165;42.662;23.260;2023-02-19T08:19:02;94488.03;;;13.30;40.05
20009;BME280;10165;42.662;23.260;2023-02-19T08:21:29;94492.72;;;13.52;40.05
20009;BME280;10165;42.662;23.260;2023-02-19T08:23:58;94493.03;;;13.31;40.35
20009;BME280;10165;42.662;23.260;2023-02-19T08:26:25;94491.41;;;13.46;40.33
20009;BME280;10165;42.662;23.260;2023-02-19T08:28:51;94499.31;;;13.20;40.59
20009;BME280;10165;42.662;23.260;2023-02-19T08:31:18;94503.97;;;13.23;40.50
20009;BME280;10165;42.662;23.260;2023-02-19T08:33:45;94496.78;;;13.46;39.87
20009;BME280;10165;42.662;23.260;2023-02-19T08:36:11;94497.31;;;13.17;40.45
20009;BME280;10165;42.662;23.260;2023-02-19T08:38:38;94492.66;;;13.49;40.42
20009;BME280;10165;42.662;23.260;2023-02-19T08:41:12;94489.09;;;13.83;39.27
20009;BME280;10165;42.662;23.260;2023-02-19T08:43:40;94490.91;;;13.21;40.06
20009;BME280;10165;42.662;23.260;2023-02-19T08:46:08;94492.91;;;13.44;39.73
20009;BME280;10165;42.662;23.260;2023-02-19T08:48:36;94502.41;;;13.57;39.65
20009;BME280;10165;42.662;23.260;2023-02-19T08:51:05;94493.25;;;13.42;40.06
20009;BME280;10165;42.662;23.260;2023-02-19T08:53:35;94496.72;;;13.62;40.17
20009;BME280;10165;42.662;23.260;2023-02-19T08:56:11;94488.84;;;13.92;39.96
20009;BME280;10165;42.662;23.260;2023-02-19T08:58:38;94488.94;;;13.95;40.23
20009;BME280;10165;42.662;23.260;2023-02-19T09:01:10;94474.91;;;14.47;39.15
20009;BME280;10165;42.662;23.260;2023-02-19T09:03:37;94474.59;;;14.29;39.49
20009;BME280;10165;42.662;23.260;2023-02-19T09:06:04;94472.84;;;13.76;40.80
20009;BME280;10165;42.662;23.260;2023-02-19T09:08:31;94472.44;;;13.35;41.44
20009;BME280;10165;42.662;23.260;2023-02-19T09:10:59;94466.41;;;13.61;41.07
20009;BME280;10165;42.662;23.260;2023-02-19T09:13:26;94471.34;;;14.20;40.51
20009;BME280;10165;42.662;23.260;2023-02-19T09:15:54;94457.44;;;14.83;39.52
20009;BME280;10165;42.662;23.260;2023-02-19T09:18:23;94455.31;;;14.47;39.58
20009;BME280;10165;42.662;23.260;2023-02-19T09:20:50;94458.28;;;14.19;40.08
20009;BME280;10165;42.662;23.260;2023-02-19T09:23:17;94455.81;;;14.52;40.00
20009;BME280;10165;42.662;23.260;2023-02-19T09:25:44;94461.41;;;14.66;39.51
20009;BME280;10165;42.662;23.260;2023-02-19T09:28:11;94454.09;;;14.41;39.91
20009;BME280;10165;42.662;23.260;2023-02-19T09:30:37;94457.28;;;14.50;39.37
20009;BME280;10165;42.662;23.260;2023-02-19T09:33:05;94462.53;;;14.43;39.53
20009;BME280;10165;42.662;23.260;2023-02-19T09:35:32;94450.09;;;14.83;39.22
20009;BME280;10165;42.662;23.260;2023-02-19T09:37:59;94443.91;;;14.79;39.16
20009;BME280;10165;42.662;23.260;2023-02-19T09:40:29;94449.56;;;14.25;39.11
20009;BME280;10165;42.662;23.260;2023-02-19T09:42:58;94448.75;;;14.44;39.12
20009;BME280;10165;42.662;23.260;2023-02-19T09:45:27;94451.06;;;14.46;38.36
20009;BME280;10165;42.662;23.260;2023-02-19T09:47:56;94451.19;;;14.53;38.61
20009;BME280;10165;42.662;23.260;2023-02-19T09:50:32;94442.88;;;14.61;38.39
20009;BME280;10165;42.662;23.260;2023-02-19T09:53:02;94436.38;;;14.89;37.88
20009;BME280;10165;42.662;23.260;2023-02-19T09:55:33;94427.47;;;14.84;37.88
20009;BME280;10165;42.662;23.260;2023-02-19T09:58:13;94425.91;;;15.10;37.54
20009;BME280;10165;42.662;23.260;2023-02-19T10:00:45;94413.59;;;15.09;37.30
20009;BME280;10165;42.662;23.260;2023-02-19T10:03:24;94402.88;;;15.12;37.70
20009;BME280;10165;42.662;23.260;2023-02-19T10:05:58;94402.22;;;14.93;37.61
20009;BME280;10165;42.662;23.260;2023-02-19T10:08:25;94404.22;;;14.99;37.38
20009;BME280;10165;42.662;23.260;2023-02-19T10:10:52;94397.06;;;15.10;37.58
20009;BME280;10165;42.662;23.260;2023-02-19T10:13:22;94377.66;;;15.24;37.21
20009;BME280;10165;42.662;23.260;2023-02-19T10:15:52;94371.88;;;15.55;37.15
20009;BME280;10165;42.662;23.260;2023-02-19T10:18:24;94363.72;;;15.18;36.96
20009;BME280;10165;42.662;23.260;2023-02-19T10:20:54;94362.09;;;15.44;36.79
20009;BME280;10165;42.662;23.260;2023-02-19T10:23:23;94366.84;;;15.20;37.26
20009;BME280;10165;42.662;23.260;2023-02-19T10:25:55;94361.94;;;16.03;35.85
20009;BME280;10165;42.662;23.260;2023-02-19T10:28:29;94356.16;;;15.61;36.68
20009;BME280;10165;42.662;23.260;2023-02-19T10:30:57;94351.34;;;15.81;36.30
20009;BME280;10165;42.662;23.260;2023-02-19T10:33:25;94347.41;;;16.15;35.84
20009;BME280;10165;42.662;23.260;2023-02-19T10:35:58;94340.44;;;15.66;36.37
20009;BME280;10165;42.662;23.260;2023-02-19T10:38:31;94341.94;;;15.64;36.59
20009;BME280;10165;42.662;23.260;2023-02-19T10:43:28;94325.84;;;15.67;36.38
20009;BME280;10165;42.662;23.260;2023-02-19T10:46:14;94313.06;;;15.61;36.44
20009;BME280;10165;42.662;23.260;2023-02-19T10:49:03;94305.78;;;15.61;36.20
20009;BME280;10165;42.662;23.260;2023-02-19T10:54:23;94303.78;;;15.99;36.22
20009;BME280;10165;42.662;23.260;2023-02-19T10:56:52;94290.41;;;16.09;36.03
20009;BME280;10165;42.662;23.260;2023-02-19T10:59:28;94288.66;;;15.87;35.67
20009;BME280;10165;42.662;23.260;2023-02-19T11:02:00;94280.41;;;15.62;35.92
20009;BME280;10165;42.662;23.260;2023-02-19T11:04:32;94279.16;;;15.56;36.03
20009;BME280;10165;42.662;23.260;2023-02-19T11:07:12;94266.03;;;15.95;35.64
20009;BME280;10165;42.662;23.260;2023-02-19T11:09:43;94264.34;;;16.31;35.65
20009;BME280;10165;42.662;23.260;2023-02-19T11:12:13;94263.56;;;16.27;35.03
20009;BME280;10165;42.662;23.260;2023-02-19T11:14:48;94256.84;;;16.00;36.00
20009;BME280;10165;42.662;23.260;2023-02-19T11:17:33;94250.03;;;16.20;35.26
20009;BME280;10165;42.662;23.260;2023-02-19T11:20:07;94252.78;;;16.27;34.87
20009;BME280;10165;42.662;23.260;2023-02-19T11:22:41;94250.00;;;16.13;34.81
20009;BME280;10165;42.662;23.260;2023-02-19T11:30:32;94228.66;;;16.52;33.97
20009;BME280;10165;42.662;23.260;2023-02-19T11:35:42;94216.00;;;16.59;33.94
20009;BME280;10165;42.662;23.260;2023-02-19T11:38:11;94216.28;;;16.44;34.06
20009;BME280;10165;42.662;23.260;2023-02-19T11:40:40;94220.09;;;16.32;34.21
20009;BME280;10165;42.662;23.260;2023-02-19T11:43:33;94206.69;;;16.53;33.84
20009;BME280;10165;42.662;23.260;2023-02-19T11:46:19;94203.34;;;16.78;32.83
20009;BME280;10165;42.662;23.260;2023-02-19T11:51:23;94198.00;;;16.92;32.41
20009;BME280;10165;42.662;23.260;2023-02-19T11:56:48;94188.00;;;17.13;32.01
20009;BME280;10165;42.662;23.260;2023-02-19T12:10:30;94169.56;;;17.68;31.05
20009;BME280;10165;42.662;23.260;2023-02-19T12:19:11;94164.50;;;17.21;31.29
20009;BME280;10165;42.662;23.260;2023-02-19T12:38:28;94110.53;;;17.71;30.43
20009;BME280;10165;42.662;23.260;2023-02-19T12:43:46;94110.50;;;17.63;30.64
20009;BME280;10165;42.662;23.260;2023-02-19T12:46:36;94103.06;;;18.10;29.76
20009;BME280;10165;42.662;23.260;2023-02-19T12:49:11;94100.50;;;17.43;30.09
20009;BME280;10165;42.662;23.260;2023-02-19T12:51:48;94095.47;;;17.62;30.13
20009;BME280;10165;42.662;23.260;2023-02-19T12:54:33;94082.31;;;17.79;29.77
20009;BME280;10165;42.662;23.260;2023-02-19T12:57:04;94069.84;;;18.20;29.55
20009;BME280;10165;42.662;23.260;2023-02-19T13:02:32;94072.13;;;18.22;31.04
20009;BME280;10165;42.662;23.260;2023-02-19T13:05:21;94071.97;;;18.60;28.79
20009;BME280;10165;42.662;23.260;2023-02-19T13:08:08;94063.03;;;18.67;28.48
20009;BME280;10165;42.662;23.260;2023-02-19T13:13:19;94059.97;;;18.61;28.24
20009;BME280;10165;42.662;23.260;2023-02-19T13:15:52;94052.44;;;18.90;27.85
20009;BME280;10165;42.662;23.260;2023-02-19T13:18:30;94045.53;;;18.82;28.26
20009;BME280;10165;42.662;23.260;2023-02-19T13:21:00;94039.66;;;18.25;29.15
20009;BME280;10165;42.662;23.260;2023-02-19T13:23:36;94042.41;;;18.14;28.66
20009;BME280;10165;42.662;23.260;2023-02-19T13:38:17;94010.38;;;18.79;28.08
20009;BME280;10165;42.662;23.260;2023-02-19T13:40:55;94014.28;;;18.71;29.08
20009;BME280;10165;42.662;23.260;2023-02-19T13:45:59;94020.16;;;18.66;30.18
20009;BME280;10165;42.662;23.260;2023-02-19T13:48:38;94011.97;;;18.73;29.30
20009;BME280;10165;42.662;23.260;2023-02-19T13:59:32;94010.28;;;18.31;29.58
20009;BME280;10165;42.662;23.260;2023-02-19T14:05:04;93995.78;;;18.00;30.52
20009;BME280;10165;42.662;23.260;2023-02-19T14:10:02;93992.09;;;18.38;30.41
20009;BME280;10165;42.662;23.260;2023-02-19T14:12:32;93987.38;;;18.53;30.07
20009;BME280;10165;42.662;23.260;2023-02-19T14:15:39;93992.94;;;18.28;30.07
20009;BME280;10165;42.662;23.260;2023-02-19T14:18:39;93993.66;;;18.29;30.14
20009;BME280;10165;42.662;23.260;2023-02-19T14:21:15;93989.09;;;18.22;30.66
20009;BME280;10165;42.662;23.260;2023-02-19T14:23:43;93983.22;;;18.34;30.90
20009;BME280;10165;42.662;23.260;2023-02-19T14:26:10;93983.91;;;18.45;30.71
20009;BME280;10165;42.662;23.260;2023-02-19T14:28:43;93967.78;;;18.31;30.71
20009;BME280;10165;42.662;23.260;2023-02-19T14:31:31;93968.63;;;18.21;29.73
20009;BME280;10165;42.662;23.260;2023-02-19T14:34:02;93967.44;;;18.26;29.26
20009;BME280;10165;42.662;23.260;2023-02-19T14:39:31;93965.69;;;18.60;28.49
20009;BME280;10165;42.662;23.260;2023-02-19T14:42:26;93955.72;;;18.46;28.60
20009;BME280;10165;42.662;23.260;2023-02-19T14:45:02;93959.06;;;18.65;29.10
20009;BME280;10165;42.662;23.260;2023-02-19T14:47:30;93956.03;;;18.55;29.02
20009;BME280;10165;42.662;23.260;2023-02-19T14:52:38;93954.28;;;18.31;30.81
20009;BME280;10165;42.662;23.260;2023-02-19T14:55:11;93950.66;;;18.52;30.18
20009;BME280;10165;42.662;23.260;2023-02-19T14:57:45;93948.13;;;18.27;31.18
20009;BME280;10165;42.662;23.260;2023-02-19T15:00:24;93947.66;;;18.39;30.72
20009;BME280;10165;42.662;23.260;2023-02-19T15:02:53;93952.38;;;18.28;30.82
20009;BME280;10165;42.662;23.260;2023-02-19T15:05:24;93935.34;;;18.31;30.43
20009;BME280;10165;42.662;23.260;2023-02-19T15:07:53;93933.50;;;18.14;30.69
20009;BME280;10165;42.662;23.260;2023-02-19T15:10:20;93941.59;;;18.17;31.01
20009;BME280;10165;42.662;23.260;2023-02-19T15:12:59;93939.34;;;18.09;30.35
20009;BME280;10165;42.662;23.260;2023-02-19T15:15:32;93945.97;;;17.94;30.77
20009;BME280;10165;42.662;23.260;2023-02-19T15:18:02;93934.34;;;18.04;31.47
20009;BME280;10165;42.662;23.260;2023-02-19T15:20:35;93930.84;;;18.07;30.24
20009;BME280;10165;42.662;23.260;2023-02-19T15:23:05;93951.69;;;18.10;30.56
20009;BME280;10165;42.662;23.260;2023-02-19T15:25:35;93943.66;;;17.99;31.10
20009;BME280;10165;42.662;23.260;2023-02-19T15:28:28;93940.63;;;17.87;31.37
20009;BME280;10165;42.662;23.260;2023-02-19T15:33:22;93941.09;;;17.67;31.96
20009;BME280;10165;42.662;23.260;2023-02-19T15:35:57;93943.84;;;17.50;32.23
20009;BME280;10165;42.662;23.260;2023-02-19T15:38:25;93958.13;;;17.50;32.02
20009;BME280;10165;42.662;23.260;2023-02-19T15:40:52;93962.78;;;17.29;31.85
20009;BME280;10165;42.662;23.260;2023-02-19T15:43:28;93964.75;;;17.25;32.00
20009;BME280;10165;42.662;23.260;2023-02-19T15:46:09;93968.59;;;17.31;32.15
20009;BME280;10165;42.662;23.260;2023-02-19T15:48:49;93972.84;;;17.32;32.48
20009;BME280;10165;42.662;23.260;2023-02-19T15:51:24;93979.06;;;16.79;32.18
20009;BME280;10165;42.662;23.260;2023-02-19T15:53:56;93977.13;;;17.01;32.27
20009;BME280;10165;42.662;23.260;2023-02-19T15:56:29;93986.75;;;16.91;33.38
20009;BME280;10165;42.662;23.260;2023-02-19T15:59:01;93987.50;;;16.24;34.74
20009;BME280;10165;42.662;23.260;2023-02-19T16:01:39;93989.78;;;16.30;35.26
20009;BME280;10165;42.662;23.260;2023-02-19T16:04:15;93991.75;;;16.43;35.35
20009;BME280;10165;42.662;23.260;2023-02-19T16:06:58;93993.66;;;16.43;35.36
20009;BME280;10165;42.662;23.260;2023-02-19T16:09:31;94004.44;;;16.32;35.84
20009;BME280;10165;42.662;23.260;2023-02-19T16:12:01;94005.47;;;15.92;36.38
20009;BME280;10165;42.662;23.260;2023-02-19T16:14:31;94009.38;;;16.02;36.49
20009;BME280;10165;42.662;23.260;2023-02-19T16:22:23;94009.31;;;15.91;35.77
20009;BME280;10165;42.662;23.260;2023-02-19T16:24:55;94013.59;;;15.99;35.15
20009;BME280;10165;42.662;23.260;2023-02-19T16:27:28;94016.31;;;16.10;34.84
20009;BME280;10165;42.662;23.260;2023-02-19T16:29:57;94013.69;;;16.49;34.47
20009;BME280;10165;42.662;23.260;2023-02-19T16:32:24;94017.56;;;16.44;34.37
20009;BME280;10165;42.662;23.260;2023-02-19T16:34:51;94024.91;;;16.61;34.25
20009;BME280;10165;42.662;23.260;2023-02-19T16:37:37;94033.69;;;16.26;34.58
20009;BME280;10165;42.662;23.260;2023-02-19T16:42:34;94035.63;;;16.37;34.48
20009;BME280;10165;42.662;23.260;2023-02-19T16:45:01;94043.34;;;16.38;34.08
20009;BME280;10165;42.662;23.260;2023-02-19T16:47:32;94045.22;;;16.13;34.44
20009;BME280;10165;42.662;23.260;2023-02-19T16:50:01;94036.03;;;16.49;33.83
20009;BME280;10165;42.662;23.260;2023-02-19T16:52:29;94041.75;;;16.23;34.02
20009;BME280;10165;42.662;23.260;2023-02-19T16:54:56;94042.13;;;16.18;33.87
20009;BME280;10165;42.662;23.260;2023-02-19T16:57:22;94044.81;;;16.18;33.94
20009;BME280;10165;42.662;23.260;2023-02-19T16:59:49;94055.25;;;16.30;34.03
20009;BME280;10165;42.662;23.260;2023-02-19T17:02:19;94040.56;;;16.10;34.22
20009;BME280;10165;42.662;23.260;2023-02-19T17:04:46;94054.47;;;16.26;34.05
20009;BME280;10165;42.662;23.260;2023-02-19T17:07:15;94056.00;;;16.20;34.07
20009;BME280;10165;42.662;23.260;2023-02-19T17:09:42;94069.81;;;16.04;34.79
20009;BME280;10165;42.662;23.260;2023-02-19T17:12:14;94060.41;;;15.70;34.96
20009;BME280;10165;42.662;23.260;2023-02-19T17:14:41;94062.03;;;15.85;35.03
20009;BME280;10165;42.662;23.260;2023-02-19T17:17:08;94059.28;;;15.71;34.93
20009;BME280;10165;42.662;23.260;2023-02-19T17:19:35;94071.47;;;15.51;34.89
20009;BME280;10165;42.662;23.260;2023-02-19T17:22:02;94068.03;;;15.57;35.18
20009;BME280;10165;42.662;23.260;2023-02-19T17:24:29;94078.81;;;15.57;34.74
20009;BME280;10165;42.662;23.260;2023-02-19T17:26:56;94080.94;;;15.34;35.03
20009;BME280;10165;42.662;23.260;2023-02-19T17:29:22;94079.50;;;15.47;34.93
20009;BME280;10165;42.662;23.260;2023-02-19T17:31:50;94083.59;;;15.30;34.94
20009;BME280;10165;42.662;23.260;2023-02-19T17:34:17;94086.69;;;15.29;34.96
20009;BME280;10165;42.662;23.260;2023-02-19T17:36:43;94096.72;;;15.36;34.62
20009;BME280;10165;42.662;23.260;2023-02-19T17:39:13;94099.31;;;14.77;35.42
20009;BME280;10165;42.662;23.260;2023-02-19T17:41:43;94101.25;;;15.24;34.58
20009;BME280;10165;42.662;23.260;2023-02-19T17:44:10;94109.91;;;15.04;34.86
20009;BME280;10165;42.662;23.260;2023-02-19T17:46:37;94105.94;;;15.38;34.56
20009;BME280;10165;42.662;23.260;2023-02-19T17:49:04;94106.34;;;15.37;34.59
20009;BME280;10165;42.662;23.260;2023-02-19T17:51:30;94111.78;;;15.47;34.76
20009;BME280;10165;42.662;23.260;2023-02-19T17:53:57;94104.72;;;15.25;34.65
20009;BME280;10165;42.662;23.260;2023-02-19T17:56:24;94103.13;;;15.17;35.08
20009;BME280;10165;42.662;23.260;2023-02-19T17:58:53;94108.56;;;15.27;34.97
20009;BME280;10165;42.662;23.260;2023-02-19T18:01:20;94110.25;;;15.46;34.75
20009;BME280;10165;42.662;23.260;2023-02-19T18:03:48;94116.50;;;15.57;34.09
20009;BME280;10165;42.662;23.260;2023-02-19T18:06:15;94117.91;;;15.41;34.63
20009;BME280;10165;42.662;23.260;2023-02-19T18:08:47;94123.25;;;14.90;35.93
20009;BME280;10165;42.662;23.260;2023-02-19T18:11:14;94130.75;;;14.70;36.11
20009;BME280;10165;42.662;23.260;2023-02-19T18:13:40;94135.91;;;14.49;36.57
20009;BME280;10165;42.662;23.260;2023-02-19T18:16:08;94130.41;;;14.75;36.46
20009;BME280;10165;42.662;23.260;2023-02-19T18:18:35;94142.16;;;14.60;36.81
20009;BME280;10165;42.662;23.260;2023-02-19T18:21:03;94130.88;;;14.47;36.94
20009;BME280;10165;42.662;23.260;2023-02-19T18:23:29;94134.78;;;14.53;36.91
20009;BME280;10165;42.662;23.260;2023-02-19T18:25:56;94149.22;;;14.75;36.43
20009;BME280;10165;42.662;23.260;2023-02-19T18:28:23;94143.72;;;14.64;36.70
20009;BME280;10165;42.662;23.260;2023-02-19T18:30:49;94148.97;;;14.50;37.11
20009;BME280;10165;42.662;23.260;2023-02-19T18:33:16;94152.13;;;14.59;37.00
20009;BME280;10165;42.662;23.260;2023-02-19T18:35:43;94165.19;;;14.27;37.67
20009;BME280;10165;42.662;23.260;2023-02-19T18:38:12;94166.47;;;14.70;36.92
20009;BME280;10165;42.662;23.260;2023-02-19T18:40:39;94160.53;;;14.54;37.18
20009;BME280;10165;42.662;23.260;2023-02-19T18:43:06;94168.56;;;14.88;36.74
20009;BME280;10165;42.662;23.260;2023-02-19T18:45:32;94169.03;;;14.97;36.70
20009;BME280;10165;42.662;23.260;2023-02-19T18:48:03;94169.47;;;15.02;36.37
20009;BME280;10165;42.662;23.260;2023-02-19T18:50:31;94173.94;;;14.88;36.80
20009;BME280;10165;42.662;23.260;2023-02-19T18:53:06;94176.91;;;14.75;37.00
20009;BME280;10165;42.662;23.260;2023-02-19T18:55:33;94180.94;;;14.96;36.75
20009;BME280;10165;42.662;23.260;2023-02-19T18:57:59;94182.25;;;15.12;36.40
20009;BME280;10165;42.662;23.260;2023-02-19T19:00:27;94184.84;;;15.02;36.76
20009;BME280;10165;42.662;23.260;2023-02-19T19:02:58;94194.47;;;15.06;36.52
20009;BME280;10165;42.662;23.260;2023-02-19T19:05:25;94198.03;;;15.14;36.44
20009;BME280;10165;42.662;23.260;2023-02-19T19:07:53;94197.25;;;14.76;37.08
20009;BME280;10165;42.662;23.260;2023-02-19T19:10:21;94203.78;;;15.12;36.71
20009;BME280;10165;42.662;23.260;2023-02-19T19:12:48;94216.78;;;15.07;36.65
20009;BME280;10165;42.662;23.260;2023-02-19T19:15:16;94213.31;;;15.06;36.76
20009;BME280;10165;42.662;23.260;2023-02-19T19:17:44;94221.91;;;14.82;37.51
20009;BME280;10165;42.662;23.260;2023-02-19T19:20:12;94229.28;;;14.89;37.27
20009;BME280;10165;42.662;23.260;2023-02-19T19:22:39;94231.72;;;14.67;37.81
20009;BME280;10165;42.662;23.260;2023-02-19T19:25:07;94232.69;;;14.86;37.46
20009;BME280;10165;42.662;23.260;2023-02-19T19:27:34;94225.56;;;14.67;37.86
20009;BME280;10165;42.662;23.260;2023-02-19T19:30:02;94234.66;;;14.55;38.05
20009;BME280;10165;42.662;23.260;2023-02-19T19:32:29;94237.88;;;14.68;37.68
20009;BME280;10165;42.662;23.260;2023-02-19T19:34:56;94242.53;;;14.71;37.88
20009;BME280;10165;42.662;23.260;2023-02-19T19:37:23;94248.41;;;14.50;38.11
20009;BME280;10165;42.662;23.260;2023-02-19T19:39:54;94241.75;;;14.14;38.59
20009;BME280;10165;42.662;23.260;2023-02-19T19:42:21;94249.88;;;14.18;38.74
20009;BME280;10165;42.662;23.260;2023-02-19T19:44:49;94247.19;;;14.44;38.57
20009;BME280;10165;42.662;23.260;2023-02-19T19:47:15;94248.59;;;14.34;38.62
20009;BME280;10165;42.662;23.260;2023-02-19T19:49:44;94253.28;;;14.15;39.19
20009;BME280;10165;42.662;23.260;2023-02-19T19:52:12;94261.16;;;14.30;39.01
20009;BME280;10165;42.662;23.260;2023-02-19T19:54:42;94261.34;;;14.15;39.49
20009;BME280;10165;42.662;23.260;2023-02-19T19:57:09;94261.13;;;14.01;39.65
20009;BME280;10165;42.662;23.260;2023-02-19T19:59:36;94273.50;;;14.05;39.84
20009;BME280;10165;42.662;23.260;2023-02-19T20:02:06;94267.22;;;14.24;39.42
20009;BME280;10165;42.662;23.260;2023-02-19T20:04:33;94271.66;;;13.86;40.20
20009;BME280;10165;42.662;23.260;2023-02-19T20:07:00;94274.31;;;13.83;40.35
20009;BME280;10165;42.662;23.260;2023-02-19T20:09:27;94273.47;;;14.31;39.61
20009;BME280;10165;42.662;23.260;2023-02-19T20:11:54;94279.09;;;13.97;40.31
20009;BME280;10165;42.662;23.260;2023-02-19T20:14:23;94269.00;;;13.86;40.64
20009;BME280;10165;42.662;23.260;2023-02-19T20:16:51;94277.88;;;14.17;40.05
20009;BME280;10165;42.662;23.260;2023-02-19T20:19:18;94283.22;;;14.40;39.77
20009;BME280;10165;42.662;23.260;2023-02-19T20:21:47;94286.34;;;13.70;40.86
20009;BME280;10165;42.662;23.260;2023-02-19T20:24:16;94283.25;;;14.17;40.30
20009;BME280;10165;42.662;23.260;2023-02-19T20:26:44;94291.16;;;14.32;40.19
20009;BME280;10165;42.662;23.260;2023-02-19T20:29:11;94293.38;;;14.01;40.83
20009;BME280;10165;42.662;23.260;2023-02-19T20:31:38;94295.34;;;13.81;41.77
20009;BME280;10165;42.662;23.260;2023-02-19T20:34:05;94301.84;;;13.80;41.57
20009;BME280;10165;42.662;23.260;2023-02-19T20:36:31;94305.78;;;13.86;41.43
20009;BME280;10165;42.662;23.260;2023-02-19T20:38:58;94310.72;;;14.07;41.11
20009;BME280;10165;42.662;23.260;2023-02-19T20:41:25;94304.59;;;14.06;41.34
20009;BME280;10165;42.662;23.260;2023-02-19T20:43:53;94309.13;;;14.02;41.21
20009;BME280;10165;42.662;23.260;2023-02-19T20:46:19;94307.81;;;14.19;40.96
20009;BME280;10165;42.662;23.260;2023-02-19T20:48:46;94311.13;;;13.60;42.47
20009;BME280;10165;42.662;23.260;2023-02-19T20:51:12;94322.84;;;13.29;43.36
20009;BME280;10165;42.662;23.260;2023-02-19T20:53:40;94325.56;;;13.74;42.59